Time;durP1;ratioP1;P1;durP2;ratioP2;P2;SDS_P1;SDS_P2;PMS_P1;PMS_P2;Temp;Humidity;BMP_temperature;BMP_pressure;BME280_temperature;BME280_humidity;BME280_pressure;Samples;Min_cycle;Max_cycle;Signal;HPM_P1;HPM_P2
2023/01/05 00:01:31;;;;;;;0.80;0.27;;;10.40;99.90;;;;;;5017950;28;20522;-76
2023/01/05 00:03:58;;;;;;;0.50;0.20;;;10.20;99.90;;;;;;5026097;28;20472;-75
2023/01/05 00:06:25;;;;;;;0.40;0.30;;;10.30;99.90;;;;;;5030864;28;20925;-76
2023/01/05 00:08:52;;;;;;;0.50;0.20;;;10.40;99.90;;;;;;5020811;28;20474;-75
2023/01/05 00:22:31;;;;;;;0.40;0.20;;;10.80;99.90;;;;;;5019212;28;20465;-76
2023/01/05 00:24:58;;;;;;;1.00;0.27;;;10.80;99.90;;;;;;5022070;28;20720;-75
2023/01/05 00:27:25;;;;;;;0.30;0.20;;;10.80;99.90;;;;;;5017165;28;20453;-75
2023/01/05 00:29:52;;;;;;;0.60;0.20;;;10.80;99.90;;;;;;5030989;28;20462;-76
2023/01/05 00:32:21;;;;;;;0.40;0.20;;;10.80;99.90;;;;;;5017063;28;20525;-75
2023/01/05 00:34:48;;;;;;;0.30;0.20;;;10.80;99.90;;;;;;5027223;28;20461;-75
2023/01/05 00:37:15;;;;;;;0.30;0.20;;;10.70;99.90;;;;;;5020220;28;20473;-75
2023/01/05 00:39:41;;;;;;;0.30;0.20;;;10.60;99.90;;;;;;5023953;28;20548;-76
2023/01/05 00:42:08;;;;;;;0.40;0.20;;;10.50;99.90;;;;;;5024826;28;20582;-76
2023/01/05 00:44:35;;;;;;;0.30;0.20;;;10.50;99.90;;;;;;5027172;28;20464;-77
2023/01/05 00:47:02;;;;;;;1.27;0.23;;;10.50;99.90;;;;;;5024253;28;20651;-78
2023/01/05 00:49:31;;;;;;;0.40;0.20;;;10.50;99.90;;;;;;5021771;28;20837;-77
2023/01/05 00:51:58;;;;;;;0.40;0.20;;;10.50;99.90;;;;;;5020853;28;20571;-75
2023/01/05 00:54:25;;;;;;;0.40;0.20;;;10.40;99.90;;;;;;5021617;28;20906;-76
2023/01/05 00:56:52;;;;;;;0.63;0.30;;;10.40;99.90;;;;;;5021730;28;20988;-75
2023/01/05 00:59:20;;;;;;;0.40;0.30;;;10.50;99.90;;;;;;5022673;28;20471;-76
2023/01/05 01:01:47;;;;;;;0.50;0.23;;;10.40;99.90;;;;;;5023070;28;20551;-76
2023/01/05 01:04:15;;;;;;;0.40;0.30;;;10.30;99.90;;;;;;5021527;28;20727;-76
2023/01/05 01:06:43;;;;;;;0.40;0.30;;;10.30;99.90;;;;;;5022221;28;20453;-76
2023/01/05 01:09:10;;;;;;;0.40;0.30;;;10.30;99.90;;;;;;5024407;28;20457;-76
2023/01/05 01:11:38;;;;;;;0.40;0.30;;;10.30;99.90;;;;;;5022190;28;21037;-76
2023/01/05 01:14:06;;;;;;;0.40;0.30;;;10.30;99.90;;;;;;5021882;28;20493;-76
2023/01/05 01:16:33;;;;;;;0.40;0.30;;;10.20;99.90;;;;;;5024924;28;20466;-76
2023/01/05 01:19:00;;;;;;;0.50;0.30;;;10.20;99.90;;;;;;5020955;28;20527;-75
2023/01/05 01:21:27;;;;;;;0.40;0.30;;;10.20;99.90;;;;;;5022839;28;20522;-76
2023/01/05 01:23:56;;;;;;;0.50;0.30;;;10.30;99.90;;;;;;5020774;28;20757;-76
2023/01/05 01:26:23;;;;;;;0.53;0.40;;;10.20;99.90;;;;;;5021322;28;20546;-75
2023/01/05 01:28:49;;;;;;;0.40;0.30;;;10.20;99.90;;;;;;5028389;28;20522;-75
2023/01/05 01:31:16;;;;;;;0.40;0.30;;;10.30;99.90;;;;;;5022307;28;20640;-76
2023/01/05 01:33:43;;;;;;;0.40;0.30;;;10.30;99.90;;;;;;5026356;28;20214;-76
2023/01/05 01:36:10;;;;;;;0.30;0.20;;;10.30;99.90;;;;;;5026102;28;20466;-76
2023/01/05 01:38:38;;;;;;;0.40;0.30;;;10.30;99.90;;;;;;5025412;28;20453;-76
2023/01/05 01:41:06;;;;;;;0.40;0.30;;;10.40;99.90;;;;;;5028709;28;20519;-75
2023/01/05 01:43:43;;;;;;;0.40;0.20;;;10.40;99.90;;;;;;5028547;28;20511;-75
2023/01/05 01:46:11;;;;;;;0.40;0.20;;;10.40;99.90;;;;;;5033640;28;20257;-75
2023/01/05 01:48:40;;;;;;;0.40;0.20;;;10.40;99.90;;;;;;5021256;28;20914;-76
2023/01/05 01:51:11;;;;;;;0.40;0.30;;;10.40;99.90;;;;;;5031900;28;20556;-76
2023/01/05 01:53:42;;;;;;;0.40;0.20;;;10.40;99.90;;;;;;5017501;28;20466;-75
2023/01/05 01:56:14;;;;;;;0.40;0.20;;;10.40;99.90;;;;;;5030348;28;20510;-75
2023/01/05 01:58:42;;;;;;;0.40;0.20;;;10.40;99.90;;;;;;5027830;28;20519;-75
2023/01/05 02:01:09;;;;;;;0.40;0.20;;;10.40;99.90;;;;;;5023153;28;20559;-75
2023/01/05 02:03:37;;;;;;;0.30;0.20;;;10.50;99.90;;;;;;5027980;28;20202;-75
2023/01/05 02:06:05;;;;;;;0.50;0.30;;;10.40;99.90;;;;;;5027630;28;20519;-76
2023/01/05 02:08:31;;;;;;;0.40;0.27;;;10.30;99.90;;;;;;5028080;28;20549;-76
2023/01/05 02:11:15;;;;;;;0.30;0.20;;;10.30;99.90;;;;;;5029008;28;20467;-76
2023/01/05 02:13:58;;;;;;;0.50;0.30;;;10.30;99.90;;;;;;5024711;28;20457;-76
2023/01/05 02:16:38;;;;;;;0.40;0.20;;;10.30;99.90;;;;;;5025466;28;20449;-76
2023/01/05 02:19:35;;;;;;;0.90;0.20;;;10.30;99.90;;;;;;5027662;28;20230;-75
2023/01/05 02:22:24;;;;;;;0.40;0.20;;;10.30;99.90;;;;;;5021998;28;20551;-76
2023/01/05 02:25:20;;;;;;;0.40;0.20;;;10.30;99.90;;;;;;5023834;28;20458;-76
2023/01/05 02:27:55;;;;;;;0.50;0.30;;;10.30;99.90;;;;;;5025810;28;20513;-76
2023/01/05 02:31:00;;;;;;;0.40;0.30;;;10.40;99.90;;;;;;5029618;28;20566;-76
2023/01/05 02:33:43;;;;;;;0.40;0.20;;;10.40;99.90;;;;;;5021995;28;20949;-76
2023/01/05 02:36:19;;;;;;;0.40;0.20;;;10.30;99.90;;;;;;5029133;28;20973;-75
2023/01/05 02:38:53;;;;;;;0.50;0.33;;;10.30;99.90;;;;;;5011311;28;20446;-76
2023/01/05 02:41:24;;;;;;;0.40;0.30;;;10.10;99.90;;;;;;5029177;28;20521;-76
2023/01/05 02:43:51;;;;;;;0.30;0.20;;;10.10;99.90;;;;;;5016006;28;20453;-76
2023/01/05 02:46:20;;;;;;;0.40;0.20;;;10.30;99.90;;;;;;5033914;28;20222;-75
2023/01/05 02:48:50;;;;;;;0.40;0.20;;;10.30;99.90;;;;;;5023987;28;20380;-75
2023/01/05 02:51:23;;;;;;;0.30;0.20;;;10.40;99.90;;;;;;5030110;28;20528;-75
2023/01/05 02:53:55;;;;;;;0.30;0.20;;;10.50;99.90;;;;;;5016536;28;20513;-75
2023/01/05 02:56:25;;;;;;;0.30;0.20;;;10.50;99.90;;;;;;5031676;28;20794;-75
2023/01/05 02:58:58;;;;;;;0.30;0.20;;;10.60;99.90;;;;;;5023334;28;20471;-75
2023/01/05 03:01:29;;;;;;;0.40;0.20;;;10.70;99.90;;;;;;5026135;28;20871;-75
2023/01/05 03:03:59;;;;;;;0.40;0.20;;;10.70;99.90;;;;;;5017016;28;20996;-75
2023/01/05 03:06:31;;;;;;;0.80;0.20;;;10.70;99.90;;;;;;5022233;28;20532;-75
2023/01/05 03:09:00;;;;;;;0.40;0.20;;;10.60;99.90;;;;;;5024522;28;20808;-75
2023/01/05 03:14:25;;;;;;;0.40;0.20;;;10.60;99.90;;;;;;5029206;28;21059;-75
2023/01/05 03:16:56;;;;;;;1.43;0.30;;;10.50;99.90;;;;;;5021459;28;20523;-75
2023/01/05 03:19:38;;;;;;;0.30;0.20;;;10.60;99.90;;;;;;5027818;28;20462;-75
2023/01/05 03:36:21;;;;;;;0.30;0.20;;;10.50;99.90;;;;;;5019167;28;20826;-75
2023/01/05 03:38:49;;;;;;;0.40;0.20;;;10.60;99.90;;;;;;5024066;28;20466;-75
2023/01/05 03:41:18;;;;;;;0.40;0.20;;;10.70;99.90;;;;;;5019383;28;20501;-76
2023/01/05 03:43:47;;;;;;;0.40;0.40;;;10.70;99.90;;;;;;5025198;28;20451;-76
2023/01/05 03:46:17;;;;;;;0.40;0.20;;;10.80;99.90;;;;;;5027482;28;20456;-75
2023/01/05 03:48:46;;;;;;;0.40;0.30;;;10.80;99.90;;;;;;5021067;28;20446;-76
2023/01/05 03:51:15;;;;;;;0.40;0.20;;;10.90;99.90;;;;;;5024532;28;20534;-75
2023/01/05 03:53:42;;;;;;;0.40;0.20;;;10.90;99.90;;;;;;5021266;28;20561;-75
2023/01/05 03:56:09;;;;;;;0.40;0.20;;;10.90;99.90;;;;;;5019905;28;20492;-75
2023/01/05 03:58:36;;;;;;;0.40;0.20;;;10.90;99.90;;;;;;5030016;28;20464;-75
2023/01/05 04:01:03;;;;;;;0.40;0.20;;;10.80;99.90;;;;;;5021078;28;20740;-75
2023/01/05 04:03:30;;;;;;;0.40;0.20;;;10.80;99.90;;;;;;5019568;28;20482;-75
2023/01/05 04:05:58;;;;;;;0.40;0.30;;;10.90;99.90;;;;;;5021197;28;20482;-75
2023/01/05 04:08:25;;;;;;;0.80;0.30;;;10.90;99.90;;;;;;5025337;28;20965;-75
2023/01/05 04:10:52;;;;;;;0.40;0.30;;;11.00;99.90;;;;;;5021648;28;20441;-76
2023/01/05 04:13:19;;;;;;;0.30;0.20;;;10.90;99.90;;;;;;5025923;28;20545;-76
2023/01/05 04:15:46;;;;;;;0.30;0.20;;;10.90;99.90;;;;;;5030905;28;21296;-76
2023/01/05 04:18:14;;;;;;;0.37;0.20;;;11.00;99.90;;;;;;5019794;28;20438;-75
2023/01/05 04:20:40;;;;;;;0.40;0.20;;;11.00;99.90;;;;;;5023001;28;20858;-76
2023/01/05 04:23:09;;;;;;;0.40;0.27;;;11.00;99.90;;;;;;5022720;28;20450;-76
2023/01/05 04:25:36;;;;;;;0.30;0.20;;;11.00;99.90;;;;;;5020013;28;20993;-76
2023/01/05 04:28:03;;;;;;;0.30;0.20;;;11.00;99.90;;;;;;5023472;28;20478;-76
2023/01/05 04:30:30;;;;;;;0.30;0.20;;;11.00;99.90;;;;;;5013738;28;20203;-75
2023/01/05 04:32:57;;;;;;;0.30;0.20;;;11.00;99.90;;;;;;5021618;28;20442;-76
2023/01/05 04:35:23;;;;;;;0.90;0.20;;;11.00;99.90;;;;;;5023717;28;20756;-76
2023/01/05 04:37:50;;;;;;;0.40;0.20;;;10.90;99.90;;;;;;5020563;28;20447;-75
2023/01/05 04:40:19;;;;;;;0.30;0.20;;;10.90;99.90;;;;;;5021907;28;20457;-75
2023/01/05 04:42:46;;;;;;;0.40;0.20;;;11.00;99.90;;;;;;5023256;28;20489;-75
2023/01/05 04:45:14;;;;;;;0.40;0.20;;;11.00;99.90;;;;;;5015942;28;20521;-76
2023/01/05 04:47:40;;;;;;;0.40;0.30;;;11.00;99.90;;;;;;5027749;28;20454;-75
2023/01/05 04:50:09;;;;;;;0.40;0.20;;;11.00;99.90;;;;;;5020894;28;20447;-75
2023/01/05 04:52:36;;;;;;;0.40;0.20;;;11.10;99.90;;;;;;5024840;28;20512;-75
2023/01/05 04:55:03;;;;;;;0.40;0.20;;;11.00;99.90;;;;;;5019700;28;20465;-75
2023/01/05 04:57:31;;;;;;;0.30;0.20;;;11.10;99.90;;;;;;5016633;28;20454;-75
2023/01/05 04:59:59;;;;;;;0.57;0.27;;;11.10;99.90;;;;;;5021129;28;20473;-75
2023/01/05 05:02:26;;;;;;;0.30;0.20;;;11.10;99.90;;;;;;5024011;28;20923;-75
2023/01/05 05:04:53;;;;;;;0.30;0.20;;;11.10;99.90;;;;;;5022506;28;20466;-76
2023/01/05 05:07:20;;;;;;;0.30;0.20;;;11.10;99.90;;;;;;5021160;28;20527;-76
2023/01/05 05:09:48;;;;;;;0.60;0.20;;;11.10;99.90;;;;;;5017318;28;20506;-75
2023/01/05 05:12:19;;;;;;;0.40;0.20;;;11.20;99.90;;;;;;5023262;28;20529;-75
2023/01/05 05:14:47;;;;;;;0.40;0.20;;;11.20;99.90;;;;;;5021810;28;20496;-75
2023/01/05 05:17:15;;;;;;;0.30;0.20;;;11.30;99.90;;;;;;5024924;28;20474;-75
2023/01/05 05:19:42;;;;;;;0.30;0.20;;;11.30;99.90;;;;;;5021546;28;20467;-76
2023/01/05 05:22:09;;;;;;;0.50;0.20;;;11.20;99.90;;;;;;5015553;28;20540;-76
2023/01/05 05:24:36;;;;;;;0.40;0.20;;;11.20;99.90;;;;;;5022122;28;20476;-75
2023/01/05 05:27:04;;;;;;;0.30;0.20;;;11.20;99.90;;;;;;5022201;28;20454;-75
2023/01/05 05:29:31;;;;;;;0.30;0.20;;;11.20;99.90;;;;;;5026554;28;20494;-76
2023/01/05 05:31:59;;;;;;;0.40;0.30;;;11.20;99.90;;;;;;5021930;28;20465;-76
2023/01/05 05:34:26;;;;;;;0.40;0.27;;;11.10;99.90;;;;;;5017618;28;20455;-75
2023/01/05 05:36:53;;;;;;;0.30;0.20;;;11.10;99.90;;;;;;5023138;28;20465;-75
2023/01/05 05:39:20;;;;;;;0.40;0.23;;;11.00;99.90;;;;;;5029784;28;20216;-76
2023/01/05 05:41:47;;;;;;;0.40;0.20;;;10.90;99.90;;;;;;5012511;28;20505;-75
2023/01/05 05:44:14;;;;;;;0.30;0.20;;;10.90;99.90;;;;;;5020286;28;20453;-75
2023/01/05 05:46:41;;;;;;;1.30;0.20;;;10.80;99.90;;;;;;5017337;28;20500;-75
2023/01/05 05:49:09;;;;;;;0.40;0.20;;;10.70;99.90;;;;;;5030103;28;20963;-75
2023/01/05 05:51:36;;;;;;;1.03;0.20;;;10.70;99.90;;;;;;5026858;28;20465;-76
2023/01/05 05:54:03;;;;;;;0.40;0.20;;;10.50;99.90;;;;;;5019391;28;20934;-75
2023/01/05 05:56:30;;;;;;;0.40;0.30;;;10.40;99.90;;;;;;5020505;28;20551;-75
2023/01/05 05:58:57;;;;;;;0.40;0.30;;;10.40;99.90;;;;;;5029698;28;20453;-75
2023/01/05 06:01:24;;;;;;;0.60;0.30;;;10.40;99.90;;;;;;5026686;28;20581;-75
2023/01/05 06:03:51;;;;;;;0.50;0.30;;;10.30;99.90;;;;;;5020799;28;21178;-75
2023/01/05 06:06:20;;;;;;;0.50;0.30;;;10.30;99.90;;;;;;5020326;28;20560;-75
2023/01/05 06:08:46;;;;;;;0.37;0.20;;;10.20;99.90;;;;;;5025801;28;20453;-75
2023/01/05 06:11:13;;;;;;;0.40;0.30;;;10.20;99.90;;;;;;5016882;28;20473;-75
2023/01/05 06:13:41;;;;;;;0.40;0.30;;;10.20;99.90;;;;;;5017771;28;21072;-75
2023/01/05 06:16:08;;;;;;;0.37;0.20;;;10.20;99.90;;;;;;5022641;28;20476;-75
2023/01/05 06:18:35;;;;;;;0.40;0.30;;;10.10;99.90;;;;;;5018214;28;20536;-75
2023/01/05 06:21:02;;;;;;;0.40;0.30;;;10.20;99.90;;;;;;5020499;28;20450;-75
2023/01/05 06:23:30;;;;;;;1.20;1.03;;;10.20;99.90;;;;;;5026654;28;20705;-75
2023/01/05 06:25:57;;;;;;;0.50;0.30;;;10.20;99.90;;;;;;5024537;28;20480;-75
2023/01/05 06:28:24;;;;;;;0.40;0.30;;;10.20;99.90;;;;;;5038914;28;20473;-75
2023/01/05 06:30:51;;;;;;;2.23;0.30;;;10.30;99.90;;;;;;5032401;28;20454;-75
2023/01/05 06:33:18;;;;;;;0.40;0.30;;;10.30;99.90;;;;;;5013244;28;20459;-75
2023/01/05 06:35:45;;;;;;;0.73;0.40;;;10.30;99.90;;;;;;5027045;28;20465;-75
2023/01/05 06:38:12;;;;;;;0.50;0.40;;;10.40;99.90;;;;;;5026795;28;20460;-75
2023/01/05 06:40:43;;;;;;;0.70;0.30;;;10.50;99.90;;;;;;5035066;28;20302;-75
2023/01/05 06:43:10;;;;;;;1.10;0.40;;;10.60;99.90;;;;;;5016084;28;20505;-75
2023/01/05 06:45:37;;;;;;;0.63;0.63;;;10.70;99.90;;;;;;5026027;28;20450;-75
2023/01/05 06:48:05;;;;;;;1.60;1.43;;;10.80;99.90;;;;;;5035893;28;20944;-75
2023/01/05 06:50:32;;;;;;;6.50;5.90;;;10.80;99.90;;;;;;5020820;28;20519;-75
2023/01/05 06:52:59;;;;;;;19.53;17.03;;;10.80;99.90;;;;;;5025040;28;20832;-75
2023/01/05 06:55:25;;;;;;;0.90;0.90;;;10.80;99.90;;;;;;5023909;28;20470;-75
2023/01/05 06:57:54;;;;;;;2.77;0.87;;;10.80;99.90;;;;;;5025843;28;20469;-75
2023/01/05 07:00:21;;;;;;;0.80;0.70;;;10.80;99.90;;;;;;5023564;28;20457;-75
2023/01/05 07:02:48;;;;;;;0.73;0.60;;;10.80;99.90;;;;;;5019377;28;20627;-75
2023/01/05 07:05:15;;;;;;;0.70;0.70;;;10.70;99.90;;;;;;5014983;28;20996;-75
2023/01/05 07:07:43;;;;;;;1.43;0.50;;;10.70;99.90;;;;;;5013494;28;20461;-75
2023/01/05 07:10:10;;;;;;;1.53;0.50;;;10.70;99.90;;;;;;5017143;28;20462;-76
2023/01/05 07:12:37;;;;;;;0.40;0.40;;;10.80;99.90;;;;;;5023781;28;20493;-75
2023/01/05 07:15:07;;;;;;;0.60;0.40;;;10.80;99.90;;;;;;5022568;28;20555;-75
2023/01/05 07:17:35;;;;;;;0.40;0.40;;;10.80;99.90;;;;;;5022320;28;20457;-75
2023/01/05 07:20:02;;;;;;;1.03;1.03;;;10.90;99.90;;;;;;5024248;28;20472;-75
2023/01/05 07:22:30;;;;;;;0.40;0.20;;;10.90;99.90;;;;;;5024221;28;20488;-76
2023/01/05 07:24:57;;;;;;;0.50;0.43;;;11.00;99.90;;;;;;5022266;28;20632;-75
2023/01/05 07:27:24;;;;;;;0.50;0.40;;;11.00;99.90;;;;;;5021280;28;20545;-75
2023/01/05 07:29:52;;;;;;;0.40;0.23;;;11.00;99.90;;;;;;5024122;28;20462;-75
2023/01/05 07:32:20;;;;;;;0.40;0.30;;;11.00;99.90;;;;;;5024590;28;20648;-75
2023/01/05 07:34:47;;;;;;;0.40;0.20;;;11.00;99.90;;;;;;5021526;28;20466;-75
2023/01/05 07:37:14;;;;;;;0.40;0.20;;;11.00;99.90;;;;;;5014326;28;20466;-76
2023/01/05 07:39:41;;;;;;;0.70;0.53;;;11.00;99.90;;;;;;5029699;28;20270;-75
2023/01/05 07:42:08;;;;;;;0.93;0.40;;;11.00;99.90;;;;;;5014426;28;21255;-75
2023/01/05 07:44:36;;;;;;;0.63;0.30;;;11.10;99.90;;;;;;5014933;28;20951;-75
2023/01/05 07:47:03;;;;;;;0.50;0.40;;;11.10;99.90;;;;;;5023549;28;20947;-76
2023/01/05 07:49:32;;;;;;;1.27;0.40;;;11.10;99.90;;;;;;5022605;28;20979;-76
2023/01/05 07:51:59;;;;;;;0.40;0.30;;;11.20;99.90;;;;;;5014800;28;20469;-76
2023/01/05 07:54:26;;;;;;;0.40;0.30;;;11.20;99.90;;;;;;5012242;28;20521;-76
2023/01/05 07:56:53;;;;;;;0.40;0.30;;;11.30;99.90;;;;;;5020608;28;20199;-77
2023/01/05 07:59:20;;;;;;;0.40;0.20;;;11.30;99.90;;;;;;5009955;28;20574;-76
2023/01/05 08:01:47;;;;;;;0.40;0.30;;;11.30;99.90;;;;;;5013734;28;21264;-76
2023/01/05 08:04:14;;;;;;;0.30;0.20;;;11.30;99.90;;;;;;5010498;28;20474;-76
2023/01/05 08:06:43;;;;;;;0.40;0.30;;;11.30;99.90;;;;;;5033940;28;20531;-76
2023/01/05 08:11:54;;;;;;;0.73;0.30;;;11.30;99.90;;;;;;5027292;28;21034;-76
2023/01/05 08:14:21;;;;;;;0.47;0.30;;;11.30;99.90;;;;;;5016394;28;20528;-76
2023/01/05 08:16:48;;;;;;;0.40;0.20;;;11.20;99.90;;;;;;5032407;28;20461;-76
2023/01/05 08:19:15;;;;;;;0.50;0.30;;;11.20;99.90;;;;;;5018321;28;20975;-76
2023/01/05 08:21:43;;;;;;;0.40;0.28;;;11.20;99.90;;;;;;5009562;28;20490;-75
2023/01/05 08:24:10;;;;;;;0.40;0.20;;;11.20;99.90;;;;;;5010845;28;20293;-76
2023/01/05 08:26:37;;;;;;;0.40;0.20;;;11.20;99.90;;;;;;5015787;28;20466;-75
2023/01/05 08:29:04;;;;;;;0.40;0.30;;;11.30;99.90;;;;;;5022118;28;20468;-75
2023/01/05 08:31:35;;;;;;;0.50;0.20;;;11.30;99.90;;;;;;5024557;28;20261;-75
2023/01/05 08:34:03;;;;;;;0.40;0.20;;;11.20;99.90;;;;;;5014937;28;20454;-76
2023/01/05 08:36:31;;;;;;;0.33;0.20;;;11.20;99.90;;;;;;5019793;28;20516;-76
2023/01/05 08:39:01;;;;;;;0.40;0.27;;;11.30;99.90;;;;;;5016895;28;20560;-76
2023/01/05 08:41:30;;;;;;;0.40;0.20;;;11.30;99.90;;;;;;5022264;28;20569;-76
2023/01/05 08:43:59;;;;;;;0.43;0.20;;;11.30;99.90;;;;;;5015255;28;21017;-75
2023/01/05 08:46:27;;;;;;;0.40;0.30;;;11.30;99.90;;;;;;5016307;28;20489;-76
2023/01/05 08:48:56;;;;;;;0.50;0.40;;;11.20;99.90;;;;;;5020459;28;20461;-75
2023/01/05 08:51:24;;;;;;;1.47;0.37;;;11.30;99.90;;;;;;5021749;28;20811;-75
2023/01/05 08:53:51;;;;;;;1.60;0.60;;;11.30;99.90;;;;;;5020580;28;20918;-75
2023/01/05 08:56:20;;;;;;;0.50;0.30;;;11.30;99.90;;;;;;5018178;28;20508;-75
2023/01/05 08:58:47;;;;;;;1.07;0.77;;;11.30;99.90;;;;;;5023256;28;20449;-76
2023/01/05 09:01:15;;;;;;;1.50;0.40;;;11.20;99.90;;;;;;5023518;28;20458;-76
2023/01/05 09:03:42;;;;;;;2.30;1.43;;;11.20;99.90;;;;;;5022403;28;20555;-75
2023/01/05 09:06:11;;;;;;;1.05;0.65;;;11.20;99.90;;;;;;5016806;28;20912;-75
2023/01/05 09:08:39;;;;;;;2.43;0.90;;;11.10;99.90;;;;;;5017607;28;20277;-76
2023/01/05 09:11:07;;;;;;;1.27;0.57;;;11.10;99.90;;;;;;5019034;28;20493;-76
2023/01/05 09:13:35;;;;;;;0.60;0.40;;;11.10;99.90;;;;;;5026013;28;20516;-75
2023/01/05 09:16:07;;;;;;;0.63;0.40;;;11.10;99.90;;;;;;5023448;28;20999;-75
2023/01/05 09:18:34;;;;;;;0.77;0.40;;;11.00;99.90;;;;;;5015982;28;20461;-75
2023/01/05 09:21:01;;;;;;;0.50;0.30;;;10.80;99.90;;;;;;5019704;28;20852;-75
2023/01/05 09:23:28;;;;;;;0.60;0.37;;;10.80;99.90;;;;;;5021001;28;20517;-75
2023/01/05 09:25:55;;;;;;;0.60;0.40;;;10.80;99.90;;;;;;5021628;28;20456;-75
2023/01/05 09:28:22;;;;;;;0.80;0.50;;;10.80;99.90;;;;;;5019195;28;20497;-75
2023/01/05 09:30:50;;;;;;;0.40;0.30;;;10.80;99.90;;;;;;5019606;28;20485;-75
2023/01/05 09:33:17;;;;;;;0.50;0.40;;;10.90;99.90;;;;;;5028760;28;20870;-75
2023/01/05 09:35:44;;;;;;;0.40;0.30;;;10.90;99.90;;;;;;5018176;28;20601;-75
2023/01/05 09:38:11;;;;;;;0.60;0.40;;;10.90;99.90;;;;;;5020814;28;20450;-75
2023/01/05 09:40:43;;;;;;;0.67;0.67;;;10.90;99.90;;;;;;5016741;28;20489;-75
2023/01/05 09:43:18;;;;;;;0.52;0.50;;;10.90;99.90;;;;;;5021552;28;20607;-75
2023/01/05 09:45:45;;;;;;;1.07;0.40;;;10.80;99.90;;;;;;5023189;28;20260;-75
2023/01/05 09:48:15;;;;;;;1.33;0.40;;;10.70;99.90;;;;;;5019472;28;20466;-76
2023/01/05 09:50:44;;;;;;;0.40;0.20;;;10.50;99.90;;;;;;5025479;28;20462;-76
2023/01/05 09:53:13;;;;;;;0.40;0.30;;;10.20;99.90;;;;;;5023776;28;20516;-79
2023/01/05 09:55:42;;;;;;;0.33;0.30;;;10.00;99.90;;;;;;5026541;28;20989;-78
2023/01/05 09:58:15;;;;;;;0.40;0.30;;;9.60;99.90;;;;;;5033955;28;20464;-78
2023/01/05 10:00:45;;;;;;;0.73;0.30;;;9.50;99.90;;;;;;5031228;28;20461;-77
2023/01/05 10:03:17;;;;;;;0.40;0.20;;;9.50;99.90;;;;;;5030298;28;20489;-78
2023/01/05 10:05:46;;;;;;;0.70;0.30;;;9.40;99.90;;;;;;5035567;28;20468;-78
2023/01/05 10:08:32;;;;;;;2.20;1.30;;;9.30;99.90;;;;;;5020408;28;20465;-78
2023/01/05 10:13:57;;;;;;;2.63;0.30;;;9.40;99.90;;;;;;5027553;28;20445;-78
2023/01/05 10:16:24;;;;;;;0.30;0.20;;;9.40;99.90;;;;;;5029264;28;20813;-78
2023/01/05 10:18:53;;;;;;;1.07;0.30;;;9.40;99.90;;;;;;5030793;28;20631;-77
2023/01/05 10:21:29;;;;;;;0.70;0.40;;;9.60;99.90;;;;;;5019151;28;20477;-77
2023/01/05 10:24:17;;;;;;;0.70;0.30;;;9.70;99.90;;;;;;5027696;28;20515;-77
2023/01/05 10:26:51;;;;;;;0.40;0.30;;;9.80;99.90;;;;;;5030308;28;20457;-77
2023/01/05 10:29:23;;;;;;;0.60;0.20;;;9.80;99.90;;;;;;5018249;28;20456;-77
2023/01/05 10:31:58;;;;;;;0.70;0.30;;;9.80;99.90;;;;;;5022977;28;20558;-77
2023/01/05 10:34:37;;;;;;;0.73;0.73;;;9.70;99.90;;;;;;5019964;28;20209;-77
2023/01/05 10:37:23;;;;;;;0.40;0.20;;;9.60;99.90;;;;;;5023635;28;20493;-77
2023/01/05 10:40:07;;;;;;;0.82;0.55;;;9.60;99.90;;;;;;5026096;28;20465;-77
2023/01/05 10:42:50;;;;;;;2.13;0.40;;;9.70;99.90;;;;;;5020422;28;20631;-77
2023/01/05 10:45:19;;;;;;;0.40;0.30;;;9.60;99.90;;;;;;5020102;28;20466;-77
2023/01/05 10:47:48;;;;;;;0.40;0.30;;;9.40;99.90;;;;;;5023541;28;20269;-78
2023/01/05 10:50:31;;;;;;;0.40;0.30;;;9.30;99.90;;;;;;5021288;28;20489;-77
2023/01/05 10:52:59;;;;;;;0.52;0.35;;;9.30;99.90;;;;;;5016931;28;20532;-77
2023/01/05 10:55:30;;;;;;;0.50;0.40;;;9.30;99.90;;;;;;5026705;28;20536;-77
2023/01/05 10:57:56;;;;;;;1.20;0.40;;;9.30;99.90;;;;;;5026757;28;20515;-78
2023/01/05 11:00:40;;;;;;;0.50;0.50;;;9.20;99.90;;;;;;5022939;28;20465;-77
2023/01/05 11:03:14;;;;;;;0.50;0.40;;;9.20;99.90;;;;;;5018820;28;20543;-77
2023/01/05 11:05:46;;;;;;;0.40;0.40;;;9.20;99.90;;;;;;5008893;28;20220;-78
2023/01/05 11:08:17;;;;;;;1.03;0.50;;;9.20;99.90;;;;;;5024562;28;20513;-77
2023/01/05 11:10:51;;;;;;;0.50;0.40;;;9.20;99.90;;;;;;5026317;28;20456;-77
2023/01/05 11:13:33;;;;;;;0.80;0.53;;;9.10;99.90;;;;;;5019820;28;21097;-77
2023/01/05 11:16:07;;;;;;;0.60;0.60;;;9.10;99.90;;;;;;5033593;28;20905;-78
2023/01/05 11:18:46;;;;;;;0.70;0.70;;;9.10;99.90;;;;;;5028733;28;20531;-78
2023/01/05 11:21:18;;;;;;;0.83;0.60;;;9.10;99.90;;;;;;5019024;28;20472;-77
2023/01/05 11:23:47;;;;;;;0.87;0.43;;;9.00;99.90;;;;;;5024461;28;20521;-77
2023/01/05 11:26:40;;;;;;;0.60;0.60;;;8.90;99.90;;;;;;5029626;28;20473;-77
2023/01/05 11:29:13;;;;;;;6.37;0.93;;;8.90;99.90;;;;;;5029235;28;20458;-77
2023/01/05 11:31:47;;;;;;;1.33;0.50;;;9.00;99.90;;;;;;5023474;28;20553;-77
2023/01/05 11:34:23;;;;;;;6.80;1.00;;;9.00;99.90;;;;;;5020731;28;20487;-77
2023/01/05 11:36:56;;;;;;;2.45;1.33;;;9.10;99.90;;;;;;5010851;28;20462;-77
2023/01/05 11:39:29;;;;;;;2.60;2.40;;;9.10;99.90;;;;;;5016438;28;20907;-77
2023/01/05 11:42:20;;;;;;;1.27;0.80;;;9.20;99.90;;;;;;5017230;28;20250;-77
2023/01/05 11:44:49;;;;;;;1.43;0.60;;;9.20;99.90;;;;;;5005012;28;20732;-77
2023/01/05 11:47:25;;;;;;;1.47;0.57;;;9.20;99.90;;;;;;5015503;28;20473;-79
2023/01/05 11:50:03;;;;;;;2.43;0.60;;;9.30;99.90;;;;;;5004868;28;20674;-76
2023/01/05 11:52:37;;;;;;;1.00;0.50;;;9.30;99.90;;;;;;5007025;28;20528;-76
2023/01/05 11:55:30;;;;;;;0.57;0.50;;;9.30;99.90;;;;;;5019070;28;20453;-75
2023/01/05 11:58:13;;;;;;;3.33;0.80;;;9.30;99.90;;;;;;5018399;28;20215;-76
2023/01/05 12:00:53;;;;;;;2.97;0.60;;;9.40;99.90;;;;;;5013940;28;20461;-76
2023/01/05 12:03:52;;;;;;;1.20;0.70;;;9.40;99.90;;;;;;5018409;28;20550;-76
2023/01/05 12:06:30;;;;;;;2.83;0.63;;;9.30;99.90;;;;;;5016116;28;20954;-76
2023/01/05 12:09:07;;;;;;;5.90;0.50;;;9.30;99.90;;;;;;5016310;28;20453;-76
2023/01/05 12:11:43;;;;;;;1.47;0.63;;;9.30;99.90;;;;;;5023137;28;20537;-75
2023/01/05 12:14:24;;;;;;;1.70;0.67;;;9.30;99.90;;;;;;5019882;28;20793;-76
2023/01/05 12:16:55;;;;;;;1.40;0.57;;;9.30;99.90;;;;;;5017857;28;20532;-76
2023/01/05 12:19:40;;;;;;;1.27;0.60;;;9.30;99.90;;;;;;5011454;28;20463;-76
2023/01/05 12:22:28;;;;;;;1.77;0.67;;;9.30;99.90;;;;;;5013007;28;20454;-76
2023/01/05 12:25:10;;;;;;;4.50;1.38;;;9.30;99.90;;;;;;5012161;28;20516;-76
2023/01/05 12:27:55;;;;;;;2.15;1.13;;;9.30;99.90;;;;;;5015691;28;20208;-76
2023/01/05 12:30:31;;;;;;;2.40;0.80;;;9.30;99.90;;;;;;5022263;28;20225;-76
2023/01/05 12:33:12;;;;;;;0.93;0.60;;;9.30;99.90;;;;;;5017634;28;20663;-76
2023/01/05 12:35:55;;;;;;;1.23;1.13;;;9.30;99.90;;;;;;5019958;28;20806;-76
2023/01/05 12:38:40;;;;;;;7.93;0.47;;;9.40;99.90;;;;;;5018497;28;20501;-76
2023/01/05 12:41:42;;;;;;;1.80;1.00;;;9.40;99.90;;;;;;5017905;28;20474;-76
2023/01/05 12:44:36;;;;;;;3.20;0.97;;;9.40;99.90;;;;;;5026390;28;20505;-76
2023/01/05 12:47:36;;;;;;;3.40;1.43;;;9.40;99.90;;;;;;5022323;28;20450;-78
2023/01/05 12:50:20;;;;;;;1.47;0.60;;;9.30;99.90;;;;;;5011174;28;20801;-78
2023/01/05 12:52:50;;;;;;;4.60;0.60;;;9.30;99.90;;;;;;5018273;28;20902;-78
2023/01/05 12:55:23;;;;;;;5.68;1.20;;;9.30;99.90;;;;;;5013041;28;20926;-78
2023/01/05 12:57:56;;;;;;;7.00;1.37;;;9.30;99.90;;;;;;5024067;28;20203;-78
2023/01/05 13:00:24;;;;;;;1.93;0.60;;;9.30;99.90;;;;;;5026362;28;20821;-77
2023/01/05 13:02:56;;;;;;;2.00;1.33;;;9.30;99.90;;;;;;5023370;28;20457;-77
2023/01/05 13:05:28;;;;;;;0.80;0.70;;;9.30;99.90;;;;;;5016767;28;20912;-76
2023/01/05 13:08:00;;;;;;;3.40;0.73;;;9.20;99.90;;;;;;5020707;28;20469;-77
2023/01/05 13:10:33;;;;;;;3.07;0.73;;;9.20;99.90;;;;;;5021357;28;20764;-77
2023/01/05 13:13:05;;;;;;;8.03;2.07;;;9.20;99.90;;;;;;5027161;28;20477;-76
2023/01/05 13:15:40;;;;;;;0.70;0.43;;;9.20;99.90;;;;;;5022007;28;20450;-76
2023/01/05 13:18:10;;;;;;;0.70;0.50;;;9.10;99.90;;;;;;5023421;28;20461;-76
2023/01/05 13:20:42;;;;;;;1.43;0.70;;;9.10;99.90;;;;;;5018921;28;20532;-76
2023/01/05 13:23:17;;;;;;;2.03;1.30;;;9.10;99.90;;;;;;5019812;28;21150;-75
2023/01/05 13:25:50;;;;;;;1.57;0.50;;;9.10;99.90;;;;;;5014885;28;20573;-75
2023/01/05 13:28:22;;;;;;;0.60;0.50;;;9.10;99.90;;;;;;5022806;28;20839;-75
2023/01/05 13:31:16;;;;;;;1.70;0.70;;;9.10;99.90;;;;;;5032086;28;20462;-75
2023/01/05 13:34:11;;;;;;;2.20;0.70;;;9.10;99.90;;;;;;5024403;28;20457;-77
2023/01/05 13:36:58;;;;;;;3.60;1.30;;;9.10;99.90;;;;;;5015225;28;20467;-78
2023/01/05 13:39:45;;;;;;;3.00;0.50;;;9.00;99.90;;;;;;5021974;28;20898;-77
2023/01/05 13:42:41;;;;;;;4.17;1.23;;;9.00;99.90;;;;;;5027029;28;20505;-78
2023/01/05 13:45:37;;;;;;;3.63;0.90;;;9.00;99.90;;;;;;5024138;28;20490;-78